sensor_id;sensor_type;location;lat;lon;timestamp;pressure;altitude;pressure_sealevel;temperature;humidity
49943;BME280;36011;53.362;58.948;2023-02-12T00:00:38;97520.88;;;-11.86;58.36
49943;BME280;36011;53.362;58.948;2023-02-12T00:03:43;97521.94;;;-11.80;58.31
49943;BME280;36011;53.362;58.948;2023-02-12T00:06:44;97532.13;;;-11.78;58.25
49943;BME280;36011;53.362;58.948;2023-02-12T00:09:48;97536.56;;;-11.98;58.63
49943;BME280;36011;53.362;58.948;2023-02-12T00:12:52;97537.00;;;-12.11;58.86
49943;BME280;36011;53.362;58.948;2023-02-12T00:15:53;97541.84;;;-12.17;59.21
49943;BME280;36011;53.362;58.948;2023-02-12T00:19:02;97537.31;;;-12.26;59.22
49943;BME280;36011;53.362;58.948;2023-02-12T00:22:04;97539.81;;;-12.28;59.47
49943;BME280;36011;53.362;58.948;2023-02-12T00:25:06;97548.09;;;-12.32;59.67
49943;BME280;36011;53.362;58.948;2023-02-12T00:28:11;97543.03;;;-12.32;59.43
49943;BME280;36011;53.362;58.948;2023-02-12T00:31:23;97541.00;;;-12.42;59.04
49943;BME280;36011;53.362;58.948;2023-02-12T00:34:25;97552.44;;;-12.53;59.35
49943;BME280;36011;53.362;58.948;2023-02-12T00:37:27;97557.88;;;-12.67;59.15
49943;BME280;36011;53.362;58.948;2023-02-12T00:40:30;97550.69;;;-12.78;58.75
49943;BME280;36011;53.362;58.948;2023-02-12T00:43:31;97559.59;;;-12.88;59.34
49943;BME280;36011;53.362;58.948;2023-02-12T00:46:37;97576.31;;;-12.93;58.94
49943;BME280;36011;53.362;58.948;2023-02-12T00:49:42;97590.59;;;-12.95;59.25
49943;BME280;36011;53.362;58.948;2023-02-12T00:52:46;97585.97;;;-13.05;59.03
49943;BME280;36011;53.362;58.948;2023-02-12T00:55:47;97587.53;;;-13.09;59.24
49943;BME280;36011;53.362;58.948;2023-02-12T00:58:53;97594.28;;;-13.09;58.85
49943;BME280;36011;53.362;58.948;2023-02-12T01:01:56;97581.94;;;-13.23;58.81
49943;BME280;36011;53.362;58.948;2023-02-12T01:04:57;97581.50;;;-13.35;58.67
49943;BME280;36011;53.362;58.948;2023-02-12T01:08:04;97588.03;;;-13.40;58.92
49943;BME280;36011;53.362;58.948;2023-02-12T01:11:05;97605.75;;;-13.40;58.97
49943;BME280;36011;53.362;58.948;2023-02-12T01:14:09;97617.19;;;-13.50;58.92
49943;BME280;36011;53.362;58.948;2023-02-12T01:17:15;97620.19;;;-13.59;58.57
49943;BME280;36011;53.362;58.948;2023-02-12T01:20:17;97617.28;;;-13.68;58.86
49943;BME280;36011;53.362;58.948;2023-02-12T01:23:21;97609.53;;;-13.72;58.52
49943;BME280;36011;53.362;58.948;2023-02-12T01:26:23;97601.19;;;-13.70;58.47
49943;BME280;36011;53.362;58.948;2023-02-12T01:29:27;97595.63;;;-13.82;58.49
49943;BME280;36011;53.362;58.948;2023-02-12T01:32:28;97608.50;;;-13.97;58.47
49943;BME280;36011;53.362;58.948;2023-02-12T01:35:29;97603.53;;;-14.15;57.97
49943;BME280;36011;53.362;58.948;2023-02-12T01:38:35;97614.84;;;-14.26;58.07
49943;BME280;36011;53.362;58.948;2023-02-12T01:41:41;97607.66;;;-14.36;58.08
49943;BME280;36011;53.362;58.948;2023-02-12T01:48:16;97623.78;;;-14.54;58.07
49943;BME280;36011;53.362;58.948;2023-02-12T01:51:23;97617.50;;;-14.62;58.26
49943;BME280;36011;53.362;58.948;2023-02-12T01:54:35;97634.78;;;-14.71;58.14
49943;BME280;36011;53.362;58.948;2023-02-12T01:57:40;97632.91;;;-14.75;57.85
49943;BME280;36011;53.362;58.948;2023-02-12T02:00:44;97629.59;;;-14.74;57.95
49943;BME280;36011;53.362;58.948;2023-02-12T02:03:51;97631.31;;;-14.73;57.54
49943;BME280;36011;53.362;58.948;2023-02-12T02:07:00;97641.06;;;-14.81;57.70
49943;BME280;36011;53.362;58.948;2023-02-12T02:10:03;97644.31;;;-14.83;57.79
49943;BME280;36011;53.362;58.948;2023-02-12T02:13:05;97635.59;;;-14.90;57.55
49943;BME280;36011;53.362;58.948;2023-02-12T02:16:28;97628.34;;;-15.02;57.42
49943;BME280;36011;53.362;58.948;2023-02-12T02:23:07;97636.53;;;-15.06;57.55
49943;BME280;36011;53.362;58.948;2023-02-12T02:29:33;97643.63;;;-14.99;57.81
49943;BME280;36011;53.362;58.948;2023-02-12T02:36:42;97640.88;;;-15.03;57.41
49943;BME280;36011;53.362;58.948;2023-02-12T02:43:15;97646.50;;;-15.09;57.48
49943;BME280;36011;53.362;58.948;2023-02-12T02:46:29;97658.22;;;-15.11;57.47
49943;BME280;36011;53.362;58.948;2023-02-12T02:49:38;97668.44;;;-15.08;57.64
49943;BME280;36011;53.362;58.948;2023-02-12T02:52:45;97669.28;;;-14.89;57.74
49943;BME280;36011;53.362;58.948;2023-02-12T02:55:53;97679.25;;;-14.93;57.70
49943;BME280;36011;53.362;58.948;2023-02-12T02:59:06;97677.09;;;-15.03;57.38
49943;BME280;36011;53.362;58.948;2023-02-12T03:02:20;97668.44;;;-15.08;57.65
49943;BME280;36011;53.362;58.948;2023-02-12T03:05:29;97668.59;;;-15.05;57.72
49943;BME280;36011;53.362;58.948;2023-02-12T03:08:38;97667.56;;;-14.90;57.54
49943;BME280;36011;53.362;58.948;2023-02-12T03:11:44;97661.72;;;-14.89;57.56
49943;BME280;36011;53.362;58.948;2023-02-12T03:14:51;97659.19;;;-14.89;57.51
49943;BME280;36011;53.362;58.948;2023-02-12T03:17:55;97666.41;;;-14.79;57.87
49943;BME280;36011;53.362;58.948;2023-02-12T03:21:03;97665.88;;;-14.72;58.00
49943;BME280;36011;53.362;58.948;2023-02-12T03:24:12;97663.88;;;-14.79;57.63
49943;BME280;36011;53.362;58.948;2023-02-12T03:27:25;97682.16;;;-14.85;57.61
49943;BME280;36011;53.362;58.948;2023-02-12T03:34:45;97669.59;;;-15.01;57.32
49943;BME280;36011;53.362;58.948;2023-02-12T03:37:35;97669.06;;;-15.12;57.10
49943;BME280;36011;53.362;58.948;2023-02-12T03:40:46;97666.03;;;-15.23;57.13
49943;BME280;36011;53.362;58.948;2023-02-12T03:43:55;97665.84;;;-15.27;57.26
49943;BME280;36011;53.362;58.948;2023-02-12T03:53:42;97691.25;;;-15.41;56.52
49943;BME280;36011;53.362;58.948;2023-02-12T03:59:52;97698.56;;;-15.29;56.18
49943;BME280;36011;53.362;58.948;2023-02-12T04:02:55;97698.13;;;-15.20;55.75
49943;BME280;36011;53.362;58.948;2023-02-12T04:05:57;97703.66;;;-15.11;55.78
49943;BME280;36011;53.362;58.948;2023-02-12T04:09:03;97704.88;;;-15.03;55.41
49943;BME280;36011;53.362;58.948;2023-02-12T04:13:12;97707.97;;;-14.90;55.05
49943;BME280;36011;53.362;58.948;2023-02-12T04:19:01;97706.06;;;-14.59;54.39
49943;BME280;36011;53.362;58.948;2023-02-12T04:25:36;97710.47;;;-14.35;54.08
49943;BME280;36011;53.362;58.948;2023-02-12T04:38:39;97701.81;;;-13.01;55.55
49943;BME280;36011;53.362;58.948;2023-02-12T04:41:43;97713.97;;;-12.72;55.74
49943;BME280;36011;53.362;58.948;2023-02-12T04:44:47;97709.84;;;-12.47;55.32
49943;BME280;36011;53.362;58.948;2023-02-12T04:47:53;97709.78;;;-12.26;55.47
49943;BME280;36011;53.362;58.948;2023-02-12T04:50:56;97706.81;;;-12.14;55.48
49943;BME280;36011;53.362;58.948;2023-02-12T04:54:00;97710.38;;;-11.87;55.80
49943;BME280;36011;53.362;58.948;2023-02-12T04:57:04;97714.22;;;-11.72;55.57
49943;BME280;36011;53.362;58.948;2023-02-12T05:00:07;97708.16;;;-11.52;56.11
49943;BME280;36011;53.362;58.948;2023-02-12T05:03:09;97700.38;;;-11.33;55.36
49943;BME280;36011;53.362;58.948;2023-02-12T05:06:13;97705.97;;;-11.17;55.40
49943;BME280;36011;53.362;58.948;2023-02-12T05:09:17;97703.94;;;-11.02;56.25
49943;BME280;36011;53.362;58.948;2023-02-12T05:12:19;97700.88;;;-10.92;56.08
49943;BME280;36011;53.362;58.948;2023-02-12T05:15:21;97705.78;;;-10.71;56.34
49943;BME280;36011;53.362;58.948;2023-02-12T05:18:23;97683.66;;;-10.73;56.04
49943;BME280;36011;53.362;58.948;2023-02-12T05:21:24;97706.56;;;-10.45;56.38
49943;BME280;36011;53.362;58.948;2023-02-12T05:24:28;97709.88;;;-10.19;55.96
49943;BME280;36011;53.362;58.948;2023-02-12T05:27:29;97711.25;;;-10.00;55.81
49943;BME280;36011;53.362;58.948;2023-02-12T05:30:33;97715.44;;;-9.73;55.38
49943;BME280;36011;53.362;58.948;2023-02-12T05:33:37;97720.84;;;-9.61;55.33
49943;BME280;36011;53.362;58.948;2023-02-12T05:36:41;97723.00;;;-9.44;55.15
49943;BME280;36011;53.362;58.948;2023-02-12T05:39:48;97710.78;;;-7.32;53.36
49943;BME280;36011;53.362;58.948;2023-02-12T05:42:49;97710.81;;;-3.53;46.23
49943;BME280;36011;53.362;58.948;2023-02-12T05:45:53;97712.31;;;-0.93;39.34
49943;BME280;36011;53.362;58.948;2023-02-12T05:48:58;97720.63;;;1.15;35.93
49943;BME280;36011;53.362;58.948;2023-02-12T05:52:03;97721.13;;;2.42;33.22
49943;BME280;36011;53.362;58.948;2023-02-12T05:55:09;97720.56;;;2.71;32.84
49943;BME280;36011;53.362;58.948;2023-02-12T05:58:11;97714.22;;;3.25;31.47
49943;BME280;36011;53.362;58.948;2023-02-12T06:01:20;97712.97;;;3.80;31.33
49943;BME280;36011;53.362;58.948;2023-02-12T06:04:29;97712.88;;;4.17;29.54
49943;BME280;36011;53.362;58.948;2023-02-12T06:07:33;97708.06;;;4.99;29.23
49943;BME280;36011;53.362;58.948;2023-02-12T06:10:37;97709.81;;;5.82;27.35
49943;BME280;36011;53.362;58.948;2023-02-12T06:13:38;97708.25;;;6.55;26.00
49943;BME280;36011;53.362;58.948;2023-02-12T06:16:39;97704.69;;;6.81;25.40
49943;BME280;36011;53.362;58.948;2023-02-12T06:19:45;97700.16;;;7.10;25.60
49943;BME280;36011;53.362;58.948;2023-02-12T06:22:49;97701.56;;;7.18;24.77
49943;BME280;36011;53.362;58.948;2023-02-12T06:25:54;97704.75;;;7.27;24.28
49943;BME280;36011;53.362;58.948;2023-02-12T06:28:56;97713.72;;;7.43;24.33
49943;BME280;36011;53.362;58.948;2023-02-12T06:32:03;97705.06;;;7.85;24.36
49943;BME280;36011;53.362;58.948;2023-02-12T06:35:05;97706.06;;;7.82;23.71
49943;BME280;36011;53.362;58.948;2023-02-12T06:38:09;97709.53;;;8.03;23.37
49943;BME280;36011;53.362;58.948;2023-02-12T06:41:13;97715.66;;;8.04;22.75
49943;BME280;36011;53.362;58.948;2023-02-12T06:44:15;97710.66;;;8.40;22.69
49943;BME280;36011;53.362;58.948;2023-02-12T06:47:17;97707.91;;;9.22;21.99
49943;BME280;36011;53.362;58.948;2023-02-12T06:50:23;97697.13;;;10.37;21.03
49943;BME280;36011;53.362;58.948;2023-02-12T06:53:26;97702.31;;;10.89;19.59
49943;BME280;36011;53.362;58.948;2023-02-12T06:56:32;97695.13;;;10.93;19.41
49943;BME280;36011;53.362;58.948;2023-02-12T06:59:34;97703.69;;;12.23;18.83
49943;BME280;36011;53.362;58.948;2023-02-12T07:02:35;97702.09;;;13.92;17.46
49943;BME280;36011;53.362;58.948;2023-02-12T07:05:38;97698.09;;;14.40;16.37
49943;BME280;36011;53.362;58.948;2023-02-12T07:08:43;97690.50;;;14.48;16.32
49943;BME280;36011;53.362;58.948;2023-02-12T07:11:51;97692.56;;;14.82;16.17
49943;BME280;36011;53.362;58.948;2023-02-12T07:14:55;97671.75;;;14.51;16.46
49943;BME280;36011;53.362;58.948;2023-02-12T07:18:01;97683.72;;;14.44;15.62
49943;BME280;36011;53.362;58.948;2023-02-12T07:21:06;97692.34;;;15.98;14.65
49943;BME280;36011;53.362;58.948;2023-02-12T07:24:11;97689.78;;;15.59;14.67
49943;BME280;36011;53.362;58.948;2023-02-12T07:27:13;97691.00;;;15.92;14.89
49943;BME280;36011;53.362;58.948;2023-02-12T07:30:15;97688.25;;;16.29;14.15
49943;BME280;36011;53.362;58.948;2023-02-12T07:33:18;97700.91;;;17.52;15.09
49943;BME280;36011;53.362;58.948;2023-02-12T07:36:20;97695.53;;;18.29;13.75
49943;BME280;36011;53.362;58.948;2023-02-12T07:39:22;97700.72;;;19.36;12.72
49943;BME280;36011;53.362;58.948;2023-02-12T07:42:23;97686.25;;;19.79;12.13
49943;BME280;36011;53.362;58.948;2023-02-12T07:45:28;97695.63;;;20.33;11.68
49943;BME280;36011;53.362;58.948;2023-02-12T07:48:30;97695.38;;;18.10;12.12
49943;BME280;36011;53.362;58.948;2023-02-12T07:51:33;97684.81;;;16.39;12.61
49943;BME280;36011;53.362;58.948;2023-02-12T07:54:37;97684.88;;;16.27;13.00
49943;BME280;36011;53.362;58.948;2023-02-12T07:57:41;97687.50;;;15.42;13.10
49943;BME280;36011;53.362;58.948;2023-02-12T08:00:48;97681.41;;;15.29;13.74
49943;BME280;36011;53.362;58.948;2023-02-12T08:03:50;97673.78;;;16.33;13.22
49943;BME280;36011;53.362;58.948;2023-02-12T08:06:55;97684.47;;;17.58;12.45
49943;BME280;36011;53.362;58.948;2023-02-12T08:09:56;97680.44;;;19.64;11.84
49943;BME280;36011;53.362;58.948;2023-02-12T08:13:01;97682.59;;;21.06;10.82
49943;BME280;36011;53.362;58.948;2023-02-12T08:16:07;97676.38;;;21.80;10.68
49943;BME280;36011;53.362;58.948;2023-02-12T08:19:11;97679.00;;;22.08;10.33
49943;BME280;36011;53.362;58.948;2023-02-12T08:22:13;97676.78;;;21.58;10.68
49943;BME280;36011;53.362;58.948;2023-02-12T08:25:14;97672.31;;;21.48;10.84
49943;BME280;36011;53.362;58.948;2023-02-12T08:28:18;97662.28;;;21.78;10.68
49943;BME280;36011;53.362;58.948;2023-02-12T08:31:27;97663.50;;;19.74;11.26
49943;BME280;36011;53.362;58.948;2023-02-12T08:34:31;97676.00;;;18.40;11.82
49943;BME280;36011;53.362;58.948;2023-02-12T08:37:34;97679.94;;;16.69;12.53
49943;BME280;36011;53.362;58.948;2023-02-12T08:40:35;97666.41;;;16.01;13.06
49943;BME280;36011;53.362;58.948;2023-02-12T08:43:37;97680.25;;;17.44;12.63
49943;BME280;36011;53.362;58.948;2023-02-12T08:46:43;97671.06;;;17.26;12.22
49943;BME280;36011;53.362;58.948;2023-02-12T08:49:46;97663.28;;;15.59;13.18
49943;BME280;36011;53.362;58.948;2023-02-12T08:52:52;97664.84;;;15.99;13.10
49943;BME280;36011;53.362;58.948;2023-02-12T08:55:54;97660.00;;;16.16;12.67
49943;BME280;36011;53.362;58.948;2023-02-12T08:59:02;97653.00;;;14.41;13.82
49943;BME280;36011;53.362;58.948;2023-02-12T09:02:12;97651.06;;;12.93;14.78
49943;BME280;36011;53.362;58.948;2023-02-12T09:05:19;97654.78;;;13.05;14.77
49943;BME280;36011;53.362;58.948;2023-02-12T09:08:26;97646.22;;;11.82;15.36
49943;BME280;36011;53.362;58.948;2023-02-12T09:11:32;97647.94;;;10.55;16.43
49943;BME280;36011;53.362;58.948;2023-02-12T09:14:34;97647.34;;;10.50;16.58
49943;BME280;36011;53.362;58.948;2023-02-12T09:17:35;97651.06;;;11.28;16.14
49943;BME280;36011;53.362;58.948;2023-02-12T09:20:38;97619.78;;;11.22;16.14
49943;BME280;36011;53.362;58.948;2023-02-12T09:23:40;97632.69;;;11.11;16.37
49943;BME280;36011;53.362;58.948;2023-02-12T09:26:41;97640.75;;;11.08;16.43
49943;BME280;36011;53.362;58.948;2023-02-12T09:29:43;97641.97;;;10.69;16.65
49943;BME280;36011;53.362;58.948;2023-02-12T09:32:44;97641.59;;;9.72;17.36
49943;BME280;36011;53.362;58.948;2023-02-12T09:35:47;97632.91;;;8.79;18.54
49943;BME280;36011;53.362;58.948;2023-02-12T09:38:54;97645.88;;;9.38;17.84
49943;BME280;36011;53.362;58.948;2023-02-12T09:42:10;97642.09;;;10.32;17.37
49943;BME280;36011;53.362;58.948;2023-02-12T09:45:25;97639.84;;;10.25;17.36
49943;BME280;36011;53.362;58.948;2023-02-12T09:51:51;97628.13;;;10.81;17.19
49943;BME280;36011;53.362;58.948;2023-02-12T09:54:55;97628.00;;;11.63;16.58
49943;BME280;36011;53.362;58.948;2023-02-12T09:57:56;97625.38;;;11.16;16.87
49943;BME280;36011;53.362;58.948;2023-02-12T10:01:03;97629.94;;;10.81;17.25
49943;BME280;36011;53.362;58.948;2023-02-12T10:04:11;97625.53;;;11.29;16.77
49943;BME280;36011;53.362;58.948;2023-02-12T10:10:51;97634.47;;;10.61;17.33
49943;BME280;36011;53.362;58.948;2023-02-12T10:20:43;97630.41;;;9.13;18.21
49943;BME280;36011;53.362;58.948;2023-02-12T10:27:24;97612.69;;;7.80;19.57
49943;BME280;36011;53.362;58.948;2023-02-12T10:33:46;97615.72;;;7.71;19.87
49943;BME280;36011;53.362;58.948;2023-02-12T10:36:53;97614.22;;;7.43;20.11
49943;BME280;36011;53.362;58.948;2023-02-12T10:40:27;97626.25;;;7.03;20.47
49943;BME280;36011;53.362;58.948;2023-02-12T10:43:30;97617.69;;;6.04;21.56
49943;BME280;36011;53.362;58.948;2023-02-12T10:46:32;97617.03;;;5.72;21.85
49943;BME280;36011;53.362;58.948;2023-02-12T10:49:35;97616.50;;;5.34;22.40
49943;BME280;36011;53.362;58.948;2023-02-12T10:52:47;97611.38;;;5.31;22.57
49943;BME280;36011;53.362;58.948;2023-02-12T10:59:22;97622.84;;;5.27;22.43
49943;BME280;36011;53.362;58.948;2023-02-12T11:05:29;97620.38;;;4.65;23.37
49943;BME280;36011;53.362;58.948;2023-02-12T11:08:35;97618.56;;;4.37;23.70
49943;BME280;36011;53.362;58.948;2023-02-12T11:11:43;97609.50;;;3.88;24.16
49943;BME280;36011;53.362;58.948;2023-02-12T11:14:49;97624.94;;;2.87;25.18
49943;BME280;36011;53.362;58.948;2023-02-12T11:17:57;97628.91;;;1.74;26.50
49943;BME280;36011;53.362;58.948;2023-02-12T11:21:05;97630.84;;;1.09;27.70
49943;BME280;36011;53.362;58.948;2023-02-12T11:27:29;97625.81;;;0.33;27.91
49943;BME280;36011;53.362;58.948;2023-02-12T11:30:34;97630.91;;;0.39;28.15
49943;BME280;36011;53.362;58.948;2023-02-12T11:33:43;97627.91;;;0.04;28.96
49943;BME280;36011;53.362;58.948;2023-02-12T11:36:52;97642.09;;;-0.37;29.38
49943;BME280;36011;53.362;58.948;2023-02-12T11:39:55;97640.53;;;-0.57;29.53
49943;BME280;36011;53.362;58.948;2023-02-12T11:43:05;97638.72;;;-0.42;29.85
49943;BME280;36011;53.362;58.948;2023-02-12T11:46:07;97640.56;;;-0.60;29.52
49943;BME280;36011;53.362;58.948;2023-02-12T11:49:37;97638.19;;;-0.84;30.37
49943;BME280;36011;53.362;58.948;2023-02-12T11:52:50;97642.38;;;-0.65;29.80
49943;BME280;36011;53.362;58.948;2023-02-12T11:55:55;97637.97;;;-0.57;29.52
49943;BME280;36011;53.362;58.948;2023-02-12T11:59:10;97638.94;;;-0.70;30.03
49943;BME280;36011;53.362;58.948;2023-02-12T12:02:24;97638.41;;;-1.20;31.16
49943;BME280;36011;53.362;58.948;2023-02-12T12:05:37;97631.00;;;-1.86;32.59
49943;BME280;36011;53.362;58.948;2023-02-12T12:08:44;97640.59;;;-2.44;33.85
49943;BME280;36011;53.362;58.948;2023-02-12T12:15:47;97638.84;;;-2.38;33.25
49943;BME280;36011;53.362;58.948;2023-02-12T12:19:46;97638.03;;;-2.89;33.51
49943;BME280;36011;53.362;58.948;2023-02-12T12:22:59;97637.66;;;-4.21;35.85
49943;BME280;36011;53.362;58.948;2023-02-12T12:26:10;97631.72;;;-5.25;38.07
49943;BME280;36011;53.362;58.948;2023-02-12T12:29:23;97631.47;;;-6.23;40.22
49943;BME280;36011;53.362;58.948;2023-02-12T12:32:29;97638.34;;;-6.80;41.68
49943;BME280;36011;53.362;58.948;2023-02-12T12:42:34;97636.47;;;-7.87;42.80
49943;BME280;36011;53.362;58.948;2023-02-12T13:09:36;97655.78;;;-9.50;48.56
49943;BME280;36011;53.362;58.948;2023-02-12T13:16:29;97646.25;;;-9.88;49.80
49943;BME280;36011;53.362;58.948;2023-02-12T13:19:45;97645.69;;;-9.78;50.58
49943;BME280;36011;53.362;58.948;2023-02-12T13:22:58;97648.13;;;-10.13;52.04
49943;BME280;36011;53.362;58.948;2023-02-12T13:29:18;97641.53;;;-10.36;51.87
49943;BME280;36011;53.362;58.948;2023-02-12T13:35:28;97643.44;;;-10.58;51.96
49943;BME280;36011;53.362;58.948;2023-02-12T13:38:38;97640.13;;;-10.55;51.76
49943;BME280;36011;53.362;58.948;2023-02-12T13:41:48;97646.69;;;-10.62;51.55
49943;BME280;36011;53.362;58.948;2023-02-12T13:48:40;97651.50;;;-10.71;53.67
49943;BME280;36011;53.362;58.948;2023-02-12T13:51:47;97650.47;;;-10.78;54.73
49943;BME280;36011;53.362;58.948;2023-02-12T14:01:46;97649.66;;;-11.30;56.12
49943;BME280;36011;53.362;58.948;2023-02-12T14:07:57;97639.06;;;-11.43;56.70
49943;BME280;36011;53.362;58.948;2023-02-12T14:11:16;97635.53;;;-11.47;57.02
49943;BME280;36011;53.362;58.948;2023-02-12T14:14:34;97639.50;;;-11.55;57.70
49943;BME280;36011;53.362;58.948;2023-02-12T14:17:41;97649.88;;;-11.74;57.74
49943;BME280;36011;53.362;58.948;2023-02-12T14:27:59;97639.59;;;-11.78;57.76
49943;BME280;36011;53.362;58.948;2023-02-12T14:37:32;97655.50;;;-12.07;58.47
49943;BME280;36011;53.362;58.948;2023-02-12T14:40:41;97644.84;;;-12.23;59.07
49943;BME280;36011;53.362;58.948;2023-02-12T14:43:44;97650.53;;;-12.28;58.79
49943;BME280;36011;53.362;58.948;2023-02-12T14:47:11;97652.56;;;-12.42;59.19
49943;BME280;36011;53.362;58.948;2023-02-12T14:50:40;97656.94;;;-12.38;59.04
49943;BME280;36011;53.362;58.948;2023-02-12T14:53:42;97655.00;;;-12.68;59.87
49943;BME280;36011;53.362;58.948;2023-02-12T14:56:48;97652.22;;;-12.96;59.99
49943;BME280;36011;53.362;58.948;2023-02-12T14:59:54;97647.59;;;-12.84;59.89
49943;BME280;36011;53.362;58.948;2023-02-12T15:06:20;97648.78;;;-12.76;60.01
49943;BME280;36011;53.362;58.948;2023-02-12T15:12:44;97649.22;;;-12.86;60.05
49943;BME280;36011;53.362;58.948;2023-02-12T15:15:54;97648.38;;;-12.85;59.92
49943;BME280;36011;53.362;58.948;2023-02-12T15:19:17;97659.34;;;-12.86;59.85
49943;BME280;36011;53.362;58.948;2023-02-12T15:25:32;97643.69;;;-12.98;60.01
49943;BME280;36011;53.362;58.948;2023-02-12T15:28:37;97648.84;;;-12.95;59.57
49943;BME280;36011;53.362;58.948;2023-02-12T15:31:40;97636.75;;;-13.02;60.09
49943;BME280;36011;53.362;58.948;2023-02-12T15:34:42;97651.81;;;-12.84;59.83
49943;BME280;36011;53.362;58.948;2023-02-12T15:37:45;97663.03;;;-12.78;59.59
49943;BME280;36011;53.362;58.948;2023-02-12T15:40:58;97668.09;;;-12.78;59.45
49943;BME280;36011;53.362;58.948;2023-02-12T15:44:02;97666.28;;;-12.82;59.15
49943;BME280;36011;53.362;58.948;2023-02-12T15:50:15;97667.91;;;-12.82;58.63
49943;BME280;36011;53.362;58.948;2023-02-12T15:53:17;97666.81;;;-12.89;58.57
49943;BME280;36011;53.362;58.948;2023-02-12T15:56:21;97667.66;;;-12.90;58.37
49943;BME280;36011;53.362;58.948;2023-02-12T15:59:26;97666.13;;;-12.85;58.70
49943;BME280;36011;53.362;58.948;2023-02-12T16:02:33;97649.56;;;-12.77;58.00
49943;BME280;36011;53.362;58.948;2023-02-12T16:05:36;97655.84;;;-12.45;57.96
49943;BME280;36011;53.362;58.948;2023-02-12T16:08:38;97649.41;;;-12.59;57.99
49943;BME280;36011;53.362;58.948;2023-02-12T16:11:47;97656.09;;;-12.61;58.60
49943;BME280;36011;53.362;58.948;2023-02-12T16:14:53;97659.16;;;-12.68;58.82
49943;BME280;36011;53.362;58.948;2023-02-12T16:17:58;97650.06;;;-12.63;58.81
49943;BME280;36011;53.362;58.948;2023-02-12T16:21:09;97650.66;;;-12.70;59.03
49943;BME280;36011;53.362;58.948;2023-02-12T16:24:43;97649.22;;;-12.63;59.28
49943;BME280;36011;53.362;58.948;2023-02-12T16:30:52;97633.34;;;-12.59;59.65
49943;BME280;36011;53.362;58.948;2023-02-12T16:33:56;97636.31;;;-12.70;59.60
49943;BME280;36011;53.362;58.948;2023-02-12T16:37:07;97637.13;;;-12.71;59.81
49943;BME280;36011;53.362;58.948;2023-02-12T16:40:36;97646.56;;;-12.89;59.71
49943;BME280;36011;53.362;58.948;2023-02-12T16:43:42;97643.44;;;-13.04;60.05
49943;BME280;36011;53.362;58.948;2023-02-12T16:46:47;97651.94;;;-13.02;59.85
49943;BME280;36011;53.362;58.948;2023-02-12T16:49:58;97655.78;;;-13.12;59.91
49943;BME280;36011;53.362;58.948;2023-02-12T16:53:03;97648.00;;;-13.17;59.75
49943;BME280;36011;53.362;58.948;2023-02-12T16:56:08;97646.63;;;-13.08;59.28
49943;BME280;36011;53.362;58.948;2023-02-12T16:59:12;97654.22;;;-13.31;59.29
49943;BME280;36011;53.362;58.948;2023-02-12T17:02:13;97657.59;;;-13.30;59.57
49943;BME280;36011;53.362;58.948;2023-02-12T17:05:16;97662.09;;;-13.23;59.12
49943;BME280;36011;53.362;58.948;2023-02-12T17:08:23;97653.72;;;-13.43;59.68
49943;BME280;36011;53.362;58.948;2023-02-12T17:11:27;97646.19;;;-13.63;59.66
49943;BME280;36011;53.362;58.948;2023-02-12T17:14:29;97650.03;;;-13.51;59.19
49943;BME280;36011;53.362;58.948;2023-02-12T17:17:31;97649.91;;;-13.54;59.48
49943;BME280;36011;53.362;58.948;2023-02-12T17:20:32;97654.19;;;-13.73;60.07
49943;BME280;36011;53.362;58.948;2023-02-12T17:23:37;97663.25;;;-13.38;60.02
49943;BME280;36011;53.362;58.948;2023-02-12T17:26:41;97661.84;;;-13.50;60.71
49943;BME280;36011;53.362;58.948;2023-02-12T17:29:42;97658.06;;;-13.41;60.83
49943;BME280;36011;53.362;58.948;2023-02-12T17:32:44;97649.41;;;-13.67;60.74
49943;BME280;36011;53.362;58.948;2023-02-12T17:35:45;97660.25;;;-13.69;61.10
49943;BME280;36011;53.362;58.948;2023-02-12T17:38:51;97663.31;;;-13.76;61.29
49943;BME280;36011;53.362;58.948;2023-02-12T17:41:57;97666.31;;;-13.85;61.46
49943;BME280;36011;53.362;58.948;2023-02-12T17:45:02;97656.75;;;-13.92;61.10
49943;BME280;36011;53.362;58.948;2023-02-12T17:48:13;97662.47;;;-13.96;61.37
49943;BME280;36011;53.362;58.948;2023-02-12T17:51:20;97648.56;;;-14.06;61.44
49943;BME280;36011;53.362;58.948;2023-02-12T17:54:22;97657.13;;;-13.83;61.14
49943;BME280;36011;53.362;58.948;2023-02-12T17:57:26;97648.09;;;-13.78;60.89
49943;BME280;36011;53.362;58.948;2023-02-12T18:00:28;97646.41;;;-13.77;60.73
49943;BME280;36011;53.362;58.948;2023-02-12T18:03:32;97657.66;;;-13.71;60.83
49943;BME280;36011;53.362;58.948;2023-02-12T18:06:52;97648.25;;;-13.73;60.79
49943;BME280;36011;53.362;58.948;2023-02-12T18:09:53;97648.09;;;-13.78;60.50
49943;BME280;36011;53.362;58.948;2023-02-12T18:13:00;97650.19;;;-13.87;60.00
49943;BME280;36011;53.362;58.948;2023-02-12T18:16:05;97645.50;;;-13.99;60.18
49943;BME280;36011;53.362;58.948;2023-02-12T18:19:06;97646.78;;;-14.09;60.09
49943;BME280;36011;53.362;58.948;2023-02-12T18:22:07;97656.47;;;-13.98;60.11
49943;BME280;36011;53.362;58.948;2023-02-12T18:25:08;97662.47;;;-13.96;59.64
49943;BME280;36011;53.362;58.948;2023-02-12T18:28:13;97670.88;;;-13.97;59.80
49943;BME280;36011;53.362;58.948;2023-02-12T18:31:15;97656.81;;;-14.10;59.34
49943;BME280;36011;53.362;58.948;2023-02-12T18:34:22;97665.13;;;-14.13;59.07
49943;BME280;36011;53.362;58.948;2023-02-12T18:37:24;97660.97;;;-14.12;59.42
49943;BME280;36011;53.362;58.948;2023-02-12T18:40:26;97655.81;;;-14.14;59.46
49943;BME280;36011;53.362;58.948;2023-02-12T18:43:30;97653.38;;;-14.12;59.08
49943;BME280;36011;53.362;58.948;2023-02-12T18:46:33;97658.56;;;-14.09;59.05
49943;BME280;36011;53.362;58.948;2023-02-12T18:49:35;97645.72;;;-14.14;59.01
49943;BME280;36011;53.362;58.948;2023-02-12T18:52:39;97649.03;;;-14.15;59.27